Pearl Ace — HOOT — position and weather

sailwx.info

Track history (hours):
 
Tides and Currents Weather Stations Pressure Air Temp Water Temp Dewpoint Dewpoint Depression Visibility Wind Speed Wind Dir Waves Ship Positions

Pearl Ace

Last reported at 2017-Dec-10 19:18 UTC. Time now 2017-Dec-12 02:59 UTC.
Position N 37°13' W 001°04'.

Length 188 m; draft 8.5 m.

Type: Other ship. MMSI: 355754000.

Date/timePositionNaut miles runAvg speedWind from/ knotsBaromVisibWave heightAir tempDewpointWater temp
2017-Dec-10 19:18N 37°13' W 001°04'517.1
2017-Dec-10 19:00N 37°17' W 000°59'817.0
2017-Dec-10 18:30N 37°22' W 000°51'816.6
2017-Dec-10 18:00N 37°28' W 000°43'816.3
2017-Dec-10 17:30N 37°33' W 000°35'816.4
2017-Dec-10 17:00N 37°40' W 000°29'1216.3
2017-Dec-10 16:16N 37°50' W 000°21'416.4
2017-Dec-10 16:00N 37°53' W 000°18'816.4
2017-Dec-10 15:30N 38°00' W 000°13'1316.3
2017-Dec-10 14:41N 38°12' W 000°04'816.0
2017-Dec-10 14:11N 38°18' E 000°02'17416.9
2017-Dec-10 03:53N 40°50' E 001°52'617.2
2017-Dec-10 03:30N 40°56' E 001°56'917.1
2017-Dec-10 03:00N 41°03' E 002°01'816.3
2017-Dec-10 02:29N 41°11' E 002°06'813.6
2017-Dec-10 01:55N 41°18' E 002°10'0 0.0
2017-Dec-09 10:15N 41°18' E 002°11'33515.2
2017-Dec-08 12:14N 38°36' E 008°33'28017.2
2017-Dec-07 19:55N 36°28' E 013°47'718.3
2017-Dec-07 19:31N 36°25' E 013°55'1018.5
2017-Dec-07 18:59N 36°21' E 014°06'918.4
2017-Dec-07 18:30N 36°18' E 014°16'918.2
2017-Dec-07 18:00N 36°14' E 014°27'917.9
2017-Dec-07 17:30N 36°13' E 014°38'917.8
2017-Dec-07 16:59N 36°12' E 014°49'  
2017-Dec-02 13:23N 38°21' E 024°51'715.9
2017-Dec-02 12:58N 38°15' E 024°47'1716.5
2017-Dec-02 11:58N 38°00' E 024°38'816.7
2017-Dec-02 11:30N 37°54' E 024°32'816.4
2017-Dec-02 11:00N 37°48' E 024°25'816.1
2017-Dec-02 10:30N 37°43' E 024°18'816.2
2017-Dec-02 10:00N 37°37' E 024°11'816.1
2017-Dec-02 09:30N 37°30' E 024°06'816.2
2017-Dec-02 09:00N 37°22' E 024°02'816.1
2017-Dec-02 08:30N 37°15' E 023°58'816.0
2017-Dec-02 08:00N 37°07' E 023°54'815.8
2017-Dec-02 07:30N 37°00' E 023°50'815.8
2017-Dec-02 07:00N 36°53' E 023°45'815.8
2017-Dec-02 06:30N 36°46' E 023°41'815.6
2017-Dec-02 06:00N 36°40' E 023°35'815.8
2017-Dec-02 05:30N 36°33' E 023°30'816.1
2017-Dec-02 05:00N 36°26' E 023°25'714.8
2017-Dec-02 04:30N 36°22' E 023°17'815.4
2017-Dec-02 04:00N 36°22' E 023°08'816.0
2017-Dec-02 03:30N 36°25' E 022°58'815.7
2017-Dec-02 03:00N 36°24' E 022°48'1514.6
2017-Dec-02 01:59N 36°21' E 022°30'713.9
2017-Dec-02 01:30N 36°22' E 022°22'30815.4
2017-Dec-01 05:31N 37°43' E 016°09'015.0
2017-Dec-01 05:30N 37°43' E 016°09'1116.8
2017-Dec-01 04:49N 37°46' E 015°55'516.9
2017-Dec-01 04:30N 37°48' E 015°49'1316.2
2017-Dec-01 03:43N 37°55' E 015°36'417.2
2017-Dec-01 03:30N 37°59' E 015°34'917.6
2017-Dec-01 03:00N 38°07' E 015°35'815.0
2017-Dec-01 02:27N 38°15' E 015°38'614.5
2017-Dec-01 02:00N 38°22' E 015°39'917.7
2017-Dec-01 01:30N 38°29' E 015°34'918.5
2017-Dec-01 01:00N 38°38' E 015°29'918.0
2017-Dec-01 00:29N 38°46' E 015°24'4016.8
2017-Nov-30 22:06N 39°15' E 014°47'  
Track history (hours):
 
Tides and Currents Weather Stations Pressure Air Temp Water Temp Dewpoint Dewpoint Depression Visibility Wind Speed Wind Dir Waves Ship Positions

Pearl Ace

Last reported at 2017-Dec-10 19:18 UTC. Time now 2017-Dec-12 02:59 UTC.
Position N 37°13' W 001°04'.

Length 188 m; draft 8.5 m.

Type: Other ship. MMSI: 355754000.

Date/timePositionNaut miles runAvg speedWind from/ knotsBaromVisibWave heightAir tempDewpointWater temp
2017-Dec-10 19:18N 37°13' W 001°04'517.1
2017-Dec-10 19:00N 37°17' W 000°59'817.0
2017-Dec-10 18:30N 37°22' W 000°51'816.6
2017-Dec-10 18:00N 37°28' W 000°43'816.3
2017-Dec-10 17:30N 37°33' W 000°35'816.4
2017-Dec-10 17:00N 37°40' W 000°29'1216.3
2017-Dec-10 16:16N 37°50' W 000°21'416.4
2017-Dec-10 16:00N 37°53' W 000°18'816.4
2017-Dec-10 15:30N 38°00' W 000°13'1316.3
2017-Dec-10 14:41N 38°12' W 000°04'816.0
2017-Dec-10 14:11N 38°18' E 000°02'17416.9
2017-Dec-10 03:53N 40°50' E 001°52'617.2
2017-Dec-10 03:30N 40°56' E 001°56'917.1
2017-Dec-10 03:00N 41°03' E 002°01'816.3
2017-Dec-10 02:29N 41°11' E 002°06'813.6
2017-Dec-10 01:55N 41°18' E 002°10'0 0.0
2017-Dec-09 10:15N 41°18' E 002°11'33515.2
2017-Dec-08 12:14N 38°36' E 008°33'28017.2
2017-Dec-07 19:55N 36°28' E 013°47'718.3
2017-Dec-07 19:31N 36°25' E 013°55'1018.5
2017-Dec-07 18:59N 36°21' E 014°06'918.4
2017-Dec-07 18:30N 36°18' E 014°16'918.2
2017-Dec-07 18:00N 36°14' E 014°27'917.9
2017-Dec-07 17:30N 36°13' E 014°38'917.8
2017-Dec-07 16:59N 36°12' E 014°49'  
2017-Dec-02 13:23N 38°21' E 024°51'715.9
2017-Dec-02 12:58N 38°15' E 024°47'1716.5
2017-Dec-02 11:58N 38°00' E 024°38'816.7
2017-Dec-02 11:30N 37°54' E 024°32'816.4
2017-Dec-02 11:00N 37°48' E 024°25'816.1
2017-Dec-02 10:30N 37°43' E 024°18'816.2
2017-Dec-02 10:00N 37°37' E 024°11'816.1
2017-Dec-02 09:30N 37°30' E 024°06'816.2
2017-Dec-02 09:00N 37°22' E 024°02'816.1
2017-Dec-02 08:30N 37°15' E 023°58'816.0
2017-Dec-02 08:00N 37°07' E 023°54'815.8
2017-Dec-02 07:30N 37°00' E 023°50'815.8
2017-Dec-02 07:00N 36°53' E 023°45'815.8
2017-Dec-02 06:30N 36°46' E 023°41'815.6
2017-Dec-02 06:00N 36°40' E 023°35'815.8
2017-Dec-02 05:30N 36°33' E 023°30'816.1
2017-Dec-02 05:00N 36°26' E 023°25'714.8
2017-Dec-02 04:30N 36°22' E 023°17'815.4
2017-Dec-02 04:00N 36°22' E 023°08'816.0
2017-Dec-02 03:30N 36°25' E 022°58'815.7
2017-Dec-02 03:00N 36°24' E 022°48'1514.6
2017-Dec-02 01:59N 36°21' E 022°30'713.9
2017-Dec-02 01:30N 36°22' E 022°22'30815.4
2017-Dec-01 05:31N 37°43' E 016°09'015.0
2017-Dec-01 05:30N 37°43' E 016°09'1116.8
2017-Dec-01 04:49N 37°46' E 015°55'516.9
2017-Dec-01 04:30N 37°48' E 015°49'1316.2
2017-Dec-01 03:43N 37°55' E 015°36'417.2
2017-Dec-01 03:30N 37°59' E 015°34'917.6
2017-Dec-01 03:00N 38°07' E 015°35'815.0
2017-Dec-01 02:27N 38°15' E 015°38'614.5
2017-Dec-01 02:00N 38°22' E 015°39'917.7
2017-Dec-01 01:30N 38°29' E 015°34'918.5
2017-Dec-01 01:00N 38°38' E 015°29'918.0
2017-Dec-01 00:29N 38°46' E 015°24'4016.8
2017-Nov-30 22:06N 39°15' E 014°47'  

Dump ship's entire track history